UAL1726 PHOG-KSFO
Flight info
| Callsign | UAL1726 |
|---|---|
| Flight time | 4h 20m |
| Altitude | 39000 |
| Route | CLUTS R465 CIVIT/N0474F410 R465 CINNY PIRAT3 |
| Aircraft | B772/H-SDE2E3FGHIJ5LORVWXY/LB1D1 |
Departure
| Time | 2026-04-24 23:46 |
|---|---|
| Airport | Kahului International Airport (PHOG) |
Arrival
| Time | 2026-04-25 04:07 |
|---|---|
| Airport | San Francisco International Airport (KSFO) |
| Time | Latitude | Longitude | Altitude | Speed | Heading |
|---|---|---|---|---|---|
| 2026-04-24 23:17 | 20.89056 | -156.43843 | 49 ft | 0 kts | 303° |
| 2026-04-24 23:36 | 20.89056 | -156.43842 | 49 ft | 2 kts | 303° |
| 2026-04-24 23:36 | 20.89042 | -156.43820 | 49 ft | 4 kts | 302° |
| 2026-04-24 23:37 | 20.89027 | -156.43795 | 49 ft | 4 kts | 303° |
| 2026-04-24 23:37 | 20.89012 | -156.43772 | 49 ft | 4 kts | 310° |
| 2026-04-24 23:37 | 20.88979 | -156.43748 | 49 ft | 4 kts | 26° |
| 2026-04-24 23:38 | 20.88962 | -156.43760 | 49 ft | 4 kts | 34° |
| 2026-04-24 23:38 | 20.88940 | -156.43776 | 48 ft | 4 kts | 33° |
| 2026-04-24 23:38 | 20.88920 | -156.43789 | 49 ft | 1 kts | 34° |
| 2026-04-24 23:41 | 20.88928 | -156.43783 | 49 ft | 3 kts | 34° |
| 2026-04-24 23:42 | 20.88947 | -156.43770 | 49 ft | 3 kts | 34° |
| 2026-04-24 23:42 | 20.88966 | -156.43756 | 49 ft | 3 kts | 34° |
| 2026-04-24 23:42 | 20.88984 | -156.43743 | 46 ft | 3 kts | 33° |
| 2026-04-24 23:42 | 20.88990 | -156.43722 | 49 ft | 4 kts | 107° |
| 2026-04-24 23:43 | 20.88987 | -156.43715 | 49 ft | 0 kts | 117° |
| 2026-04-24 23:44 | 20.88976 | -156.43694 | 49 ft | 5 kts | 122° |
| 2026-04-24 23:44 | 20.88951 | -156.43659 | 46 ft | 5 kts | 128° |
| 2026-04-24 23:45 | 20.88936 | -156.43632 | 49 ft | 2 kts | 99° |
| 2026-04-24 23:45 | 20.88942 | -156.43621 | 49 ft | 0 kts | 48° |
| 2026-04-24 23:45 | 20.88944 | -156.43621 | 49 ft | 0 kts | 40° |
| 2026-04-24 23:45 | 20.89033 | -156.43546 | 50 ft | 51 kts | 35° |
| 2026-04-24 23:46 | 20.89543 | -156.43166 | 48 ft | 124 kts | 35° |
| 2026-04-24 23:46 | 20.90380 | -156.42557 | 311 ft | 159 kts | 33° |
| 2026-04-24 23:46 | 20.91328 | -156.41871 | 1092 ft | 170 kts | 33° |
| 2026-04-24 23:46 | 20.92316 | -156.41124 | 1961 ft | 180 kts | 35° |
| 2026-04-24 23:47 | 20.93358 | -156.40294 | 2778 ft | 194 kts | 36° |
| 2026-04-24 23:47 | 20.94496 | -156.39403 | 3465 ft | 210 kts | 36° |
| 2026-04-24 23:47 | 20.95724 | -156.38442 | 4231 ft | 224 kts | 37° |
| 2026-04-24 23:47 | 20.96990 | -156.37436 | 5147 ft | 229 kts | 37° |
| 2026-04-24 23:48 | 20.98240 | -156.36389 | 5975 ft | 233 kts | 39° |
| 2026-04-24 23:48 | 20.99574 | -156.35227 | 6271 ft | 260 kts | 39° |
| 2026-04-24 23:48 | 21.01009 | -156.33980 | 6966 ft | 270 kts | 39° |
| 2026-04-24 23:48 | 21.02493 | -156.32703 | 7780 ft | 277 kts | 38° |
| 2026-04-24 23:49 | 21.04012 | -156.31406 | 8662 ft | 281 kts | 38° |
| 2026-04-24 23:49 | 21.05552 | -156.30101 | 9493 ft | 286 kts | 38° |
| 2026-04-24 23:49 | 21.07116 | -156.28783 | 9975 ft | 289 kts | 37° |
| 2026-04-24 23:49 | 21.08685 | -156.27467 | 9998 ft | 290 kts | 37° |
| 2026-04-24 23:50 | 21.10332 | -156.26091 | 10144 ft | 314 kts | 37° |
| 2026-04-24 23:50 | 21.12131 | -156.24592 | 10439 ft | 338 kts | 37° |
| 2026-04-24 23:50 | 21.14023 | -156.23016 | 11131 ft | 350 kts | 36° |
| 2026-04-24 23:50 | 21.15974 | -156.21391 | 11934 ft | 357 kts | 36° |
| 2026-04-24 23:51 | 21.17947 | -156.19748 | 12837 ft | 362 kts | 36° |
| 2026-04-24 23:51 | 21.19946 | -156.18083 | 13765 ft | 365 kts | 36° |
| 2026-04-24 23:51 | 21.21959 | -156.16406 | 14646 ft | 369 kts | 36° |
| 2026-04-24 23:51 | 21.23999 | -156.14707 | 15499 ft | 373 kts | 36° |
| 2026-04-24 23:52 | 21.26061 | -156.12989 | 16333 ft | 377 kts | 36° |
| 2026-04-24 23:52 | 21.28144 | -156.11253 | 17132 ft | 381 kts | 37° |
| 2026-04-24 23:52 | 21.30243 | -156.09503 | 17884 ft | 385 kts | 37° |
| 2026-04-24 23:52 | 21.32371 | -156.07728 | 18625 ft | 389 kts | 37° |
| 2026-04-24 23:53 | 21.34499 | -156.05953 | 19330 ft | 393 kts | 37° |
| 2026-04-24 23:53 | 21.36665 | -156.04145 | 19994 ft | 398 kts | 37° |
| 2026-04-24 23:53 | 21.38864 | -156.02309 | 20641 ft | 402 kts | 37° |
| 2026-04-24 23:53 | 21.41085 | -156.00453 | 21308 ft | 406 kts | 37° |
| 2026-04-24 23:54 | 21.43327 | -155.98579 | 21952 ft | 410 kts | 37° |
| 2026-04-24 23:54 | 21.45590 | -155.96688 | 22563 ft | 414 kts | 37° |
| 2026-04-24 23:54 | 21.47878 | -155.94776 | 23149 ft | 419 kts | 37° |
| 2026-04-24 23:54 | 21.50192 | -155.92843 | 23732 ft | 423 kts | 37° |
| 2026-04-24 23:55 | 21.52528 | -155.90889 | 24326 ft | 427 kts | 37° |
| 2026-04-24 23:55 | 21.54852 | -155.88943 | 24930 ft | 430 kts | 37° |
| 2026-04-24 23:55 | 21.57214 | -155.86965 | 25549 ft | 433 kts | 37° |
| 2026-04-24 23:55 | 21.59599 | -155.84965 | 26106 ft | 436 kts | 38° |
| 2026-04-24 23:56 | 21.62005 | -155.82948 | 26622 ft | 440 kts | 38° |
| 2026-04-24 23:56 | 21.64421 | -155.80922 | 27132 ft | 443 kts | 38° |
| 2026-04-24 23:56 | 21.66859 | -155.78877 | 27637 ft | 445 kts | 38° |
| 2026-04-24 23:56 | 21.69312 | -155.76818 | 28111 ft | 448 kts | 38° |
| 2026-04-24 23:57 | 21.71777 | -155.74748 | 28590 ft | 450 kts | 38° |
| 2026-04-24 23:57 | 21.74246 | -155.72673 | 29031 ft | 452 kts | 38° |
| 2026-04-24 23:57 | 21.76734 | -155.70581 | 29460 ft | 455 kts | 38° |
| 2026-04-24 23:57 | 21.79235 | -155.68479 | 29863 ft | 457 kts | 39° |
| 2026-04-24 23:58 | 21.80895 | -155.67082 | 30122 ft | 458 kts | 39° |
| 2026-04-24 23:58 | 21.83417 | -155.64959 | 30484 ft | 461 kts | 39° |
| 2026-04-24 23:58 | 21.85958 | -155.62820 | 30762 ft | 465 kts | 38° |
| 2026-04-24 23:58 | 21.88513 | -155.60669 | 31022 ft | 469 kts | 38° |
| 2026-04-24 23:59 | 21.91096 | -155.58493 | 31283 ft | 472 kts | 38° |
| 2026-04-24 23:59 | 21.93686 | -155.56310 | 31557 ft | 475 kts | 38° |
| 2026-04-24 23:59 | 21.96301 | -155.54104 | 31824 ft | 478 kts | 38° |
| 2026-04-24 23:59 | 21.98930 | -155.51884 | 32064 ft | 481 kts | 38° |
| 2026-04-25 00:00 | 22.01575 | -155.49651 | 32286 ft | 484 kts | 38° |
| 2026-04-25 00:00 | 22.04223 | -155.47415 | 32537 ft | 485 kts | 38° |
| 2026-04-25 00:00 | 22.06884 | -155.45166 | 32827 ft | 486 kts | 38° |
| 2026-04-25 00:00 | 22.09546 | -155.42916 | 33123 ft | 486 kts | 38° |
| 2026-04-25 00:01 | 22.12198 | -155.40672 | 33437 ft | 485 kts | 38° |
| 2026-04-25 00:01 | 22.14859 | -155.38421 | 33724 ft | 486 kts | 38° |
| 2026-04-25 00:01 | 22.17486 | -155.36196 | 34013 ft | 486 kts | 37° |
| 2026-04-25 00:01 | 22.20183 | -155.33912 | 34327 ft | 486 kts | 37° |
| 2026-04-25 00:02 | 22.22803 | -155.31691 | 34574 ft | 487 kts | 37° |
| 2026-04-25 00:02 | 22.25473 | -155.29427 | 34797 ft | 488 kts | 37° |
| 2026-04-25 00:02 | 22.28147 | -155.27158 | 35060 ft | 489 kts | 37° |
| 2026-04-25 00:02 | 22.30824 | -155.24886 | 35325 ft | 489 kts | 37° |
| 2026-04-25 00:03 | 22.33503 | -155.22611 | 35573 ft | 490 kts | 36° |
| 2026-04-25 00:03 | 22.36178 | -155.20338 | 35798 ft | 491 kts | 36° |
| 2026-04-25 00:03 | 22.38866 | -155.18052 | 36029 ft | 491 kts | 36° |
| 2026-04-25 00:03 | 22.41548 | -155.15771 | 36270 ft | 492 kts | 36° |
| 2026-04-25 00:04 | 22.44241 | -155.13478 | 36488 ft | 493 kts | 36° |
| 2026-04-25 00:04 | 22.46939 | -155.11183 | 36708 ft | 493 kts | 36° |
| 2026-04-25 00:04 | 22.49630 | -155.08890 | 37012 ft | 491 kts | 36° |
| 2026-04-25 00:04 | 22.52308 | -155.06607 | 37331 ft | 488 kts | 36° |
| 2026-04-25 00:05 | 22.54939 | -155.04362 | 37589 ft | 487 kts | 35° |
| 2026-04-25 00:05 | 22.57629 | -155.02067 | 37802 ft | 487 kts | 35° |
| 2026-04-25 00:05 | 22.60301 | -154.99790 | 37940 ft | 489 kts | 35° |
| 2026-04-25 00:05 | 22.62953 | -154.97527 | 38100 ft | 490 kts | 35° |
| 2026-04-25 00:06 | 22.65633 | -154.95233 | 38265 ft | 491 kts | 35° |
| 2026-04-25 00:06 | 22.68303 | -154.92948 | 38459 ft | 490 kts | 35° |
| 2026-04-25 00:06 | 22.70985 | -154.90654 | 38613 ft | 491 kts | 35° |
| 2026-04-25 00:06 | 22.73672 | -154.88358 | 38752 ft | 492 kts | 35° |
| 2026-04-25 00:07 | 22.76352 | -154.86063 | 38886 ft | 493 kts | 35° |
| 2026-04-25 00:07 | 22.79051 | -154.83752 | 38940 ft | 495 kts | 35° |
| 2026-04-25 00:07 | 22.84450 | -154.79122 | 38990 ft | 494 kts | 35° |
| 2026-04-25 00:08 | 22.89830 | -154.74502 | 38986 ft | 492 kts | 35° |
| 2026-04-25 00:08 | 22.95159 | -154.69925 | 38983 ft | 491 kts | 35° |
| 2026-04-25 00:09 | 23.00216 | -154.64930 | 38989 ft | 494 kts | 45° |
| 2026-04-25 00:09 | 23.04423 | -154.58982 | 38985 ft | 498 kts | 54° |
| 2026-04-25 00:10 | 23.08213 | -154.52677 | 38990 ft | 499 kts | 54° |
| 2026-04-25 00:10 | 23.12000 | -154.46352 | 38985 ft | 499 kts | 54° |
| 2026-04-25 00:11 | 23.15811 | -154.40053 | 38981 ft | 499 kts | 54° |
| 2026-04-25 00:11 | 23.19639 | -154.33754 | 38985 ft | 499 kts | 54° |
| 2026-04-25 00:12 | 23.23459 | -154.27470 | 38982 ft | 498 kts | 54° |
| 2026-04-25 00:12 | 23.27252 | -154.21219 | 38981 ft | 498 kts | 54° |
| 2026-04-25 00:13 | 23.31054 | -154.14941 | 38981 ft | 497 kts | 54° |
| 2026-04-25 00:13 | 23.34855 | -154.08658 | 38981 ft | 496 kts | 54° |
| 2026-04-25 00:14 | 23.38639 | -154.02392 | 38984 ft | 495 kts | 54° |
| 2026-04-25 00:14 | 23.42416 | -153.96132 | 38982 ft | 495 kts | 54° |
| 2026-04-25 00:15 | 23.46196 | -153.89862 | 38983 ft | 494 kts | 54° |
| 2026-04-25 00:15 | 23.49969 | -153.83593 | 38983 ft | 494 kts | 54° |
| 2026-04-25 00:16 | 23.53727 | -153.77337 | 38981 ft | 493 kts | 54° |
| 2026-04-25 00:16 | 23.57463 | -153.71115 | 38980 ft | 493 kts | 54° |
| 2026-04-25 00:17 | 23.61220 | -153.64852 | 38985 ft | 493 kts | 54° |
| 2026-04-25 00:17 | 23.64972 | -153.58587 | 38981 ft | 493 kts | 54° |
| 2026-04-25 00:18 | 23.68724 | -153.52315 | 38978 ft | 493 kts | 54° |
| 2026-04-25 00:18 | 23.72467 | -153.46049 | 38979 ft | 493 kts | 54° |
| 2026-04-25 00:19 | 23.76207 | -153.39779 | 38980 ft | 493 kts | 54° |
| 2026-04-25 00:19 | 23.79931 | -153.33537 | 38981 ft | 493 kts | 54° |
| 2026-04-25 00:20 | 23.83686 | -153.27268 | 38981 ft | 494 kts | 54° |
| 2026-04-25 00:20 | 23.87450 | -153.20982 | 38981 ft | 494 kts | 54° |
| 2026-04-25 00:21 | 23.91205 | -153.14695 | 38985 ft | 494 kts | 54° |
| 2026-04-25 00:21 | 23.94965 | -153.08390 | 38980 ft | 495 kts | 54° |
| 2026-04-25 00:22 | 23.98718 | -153.02088 | 38981 ft | 495 kts | 54° |
| 2026-04-25 00:22 | 24.02469 | -152.95781 | 38995 ft | 494 kts | 54° |
| 2026-04-25 00:23 | 24.06212 | -152.89480 | 38980 ft | 492 kts | 54° |
| 2026-04-25 00:23 | 24.09939 | -152.83199 | 38980 ft | 490 kts | 54° |
| 2026-04-25 00:24 | 24.13623 | -152.76982 | 38981 ft | 488 kts | 54° |
| 2026-04-25 00:24 | 24.17331 | -152.70714 | 38975 ft | 487 kts | 54° |
| 2026-04-25 00:25 | 24.20988 | -152.64528 | 38980 ft | 486 kts | 54° |
| 2026-04-25 00:25 | 24.24657 | -152.58313 | 38982 ft | 486 kts | 54° |
| 2026-04-25 00:26 | 24.28328 | -152.52085 | 38979 ft | 486 kts | 54° |
| 2026-04-25 00:26 | 24.31994 | -152.45861 | 38980 ft | 486 kts | 54° |
| 2026-04-25 00:27 | 24.35667 | -152.39615 | 38982 ft | 487 kts | 54° |
| 2026-04-25 00:27 | 24.39342 | -152.33355 | 38983 ft | 488 kts | 54° |
| 2026-04-25 00:28 | 24.42997 | -152.27125 | 38982 ft | 488 kts | 54° |
| 2026-04-25 00:28 | 24.46677 | -152.20843 | 38981 ft | 489 kts | 54° |
| 2026-04-25 00:29 | 24.50351 | -152.14561 | 38981 ft | 489 kts | 54° |
| 2026-04-25 00:29 | 24.54027 | -152.08270 | 38971 ft | 490 kts | 55° |
| 2026-04-25 00:30 | 24.57713 | -152.01956 | 38969 ft | 490 kts | 55° |
| 2026-04-25 00:30 | 24.61377 | -151.95667 | 39059 ft | 488 kts | 55° |
| 2026-04-25 00:31 | 24.65025 | -151.89399 | 39065 ft | 490 kts | 55° |
| 2026-04-25 00:31 | 24.68695 | -151.83085 | 39066 ft | 490 kts | 55° |
| 2026-04-25 00:32 | 24.72363 | -151.76769 | 39066 ft | 490 kts | 55° |
| 2026-04-25 00:32 | 24.76027 | -151.70447 | 39063 ft | 490 kts | 55° |
| 2026-04-25 00:33 | 24.79690 | -151.64120 | 39064 ft | 489 kts | 55° |
| 2026-04-25 00:33 | 24.83338 | -151.57808 | 39065 ft | 489 kts | 55° |
| 2026-04-25 00:34 | 24.86965 | -151.51529 | 39065 ft | 488 kts | 55° |
| 2026-04-25 00:34 | 24.90606 | -151.45218 | 39065 ft | 487 kts | 55° |
| 2026-04-25 00:35 | 24.94236 | -151.38913 | 39064 ft | 487 kts | 55° |
| 2026-04-25 00:35 | 24.97859 | -151.32612 | 39064 ft | 486 kts | 55° |
| 2026-04-25 00:36 | 25.01472 | -151.26322 | 39066 ft | 485 kts | 55° |
| 2026-04-25 00:36 | 25.05078 | -151.20039 | 39066 ft | 484 kts | 55° |
| 2026-04-25 00:37 | 25.08677 | -151.13758 | 39065 ft | 483 kts | 55° |
| 2026-04-25 00:37 | 25.12268 | -151.07481 | 39065 ft | 483 kts | 55° |
| 2026-04-25 00:38 | 25.15832 | -151.01243 | 39065 ft | 483 kts | 55° |
| 2026-04-25 00:38 | 25.19417 | -150.94961 | 39065 ft | 483 kts | 55° |
| 2026-04-25 00:39 | 25.22997 | -150.88680 | 39066 ft | 483 kts | 55° |
| 2026-04-25 00:39 | 25.26576 | -150.82391 | 39062 ft | 483 kts | 55° |
| 2026-04-25 00:40 | 25.30154 | -150.76097 | 39065 ft | 483 kts | 55° |
| 2026-04-25 00:40 | 25.33729 | -150.69798 | 39066 ft | 483 kts | 55° |
| 2026-04-25 00:41 | 25.37280 | -150.63533 | 39065 ft | 484 kts | 55° |
| 2026-04-25 00:41 | 25.40859 | -150.57210 | 39065 ft | 484 kts | 55° |
| 2026-04-25 00:42 | 25.44426 | -150.50903 | 39063 ft | 483 kts | 55° |
| 2026-04-25 00:42 | 25.47995 | -150.44581 | 39065 ft | 483 kts | 55° |
| 2026-04-25 00:43 | 25.51554 | -150.38268 | 39064 ft | 483 kts | 55° |
| 2026-04-25 00:43 | 25.55086 | -150.31995 | 39067 ft | 483 kts | 55° |
| 2026-04-25 00:44 | 25.58634 | -150.25685 | 39064 ft | 482 kts | 55° |
| 2026-04-25 00:44 | 25.62174 | -150.19380 | 39067 ft | 482 kts | 55° |
| 2026-04-25 00:45 | 25.65714 | -150.13066 | 39065 ft | 482 kts | 55° |
| 2026-04-25 00:45 | 25.68654 | -150.07817 | 39062 ft | 481 kts | 56° |
| 2026-04-25 00:46 | 25.72179 | -150.01514 | 39065 ft | 481 kts | 56° |
| 2026-04-25 00:47 | 25.77468 | -149.92042 | 39065 ft | 480 kts | 56° |
| 2026-04-25 00:47 | 25.80966 | -149.85769 | 39067 ft | 480 kts | 56° |
| 2026-04-25 00:48 | 25.84475 | -149.79471 | 39066 ft | 480 kts | 56° |
| 2026-04-25 00:48 | 25.87978 | -149.73168 | 39065 ft | 480 kts | 56° |
| 2026-04-25 00:49 | 25.91493 | -149.66834 | 39063 ft | 480 kts | 56° |
| 2026-04-25 00:49 | 25.94978 | -149.60548 | 39065 ft | 480 kts | 56° |
| 2026-04-25 00:50 | 25.98494 | -149.54197 | 39067 ft | 481 kts | 56° |
| 2026-04-25 00:50 | 26.01991 | -149.47873 | 39065 ft | 482 kts | 56° |
| 2026-04-25 00:51 | 26.05502 | -149.41514 | 39063 ft | 482 kts | 56° |
| 2026-04-25 00:51 | 26.09009 | -149.35152 | 39064 ft | 481 kts | 56° |
| 2026-04-25 00:52 | 26.12509 | -149.28797 | 39065 ft | 481 kts | 56° |
| 2026-04-25 00:52 | 26.16001 | -149.22441 | 39062 ft | 481 kts | 56° |
| 2026-04-25 00:53 | 26.19470 | -149.16126 | 39065 ft | 480 kts | 56° |
| 2026-04-25 00:53 | 26.22948 | -149.09783 | 39064 ft | 480 kts | 56° |
| 2026-04-25 00:54 | 26.26430 | -149.03422 | 39064 ft | 480 kts | 56° |
| 2026-04-25 00:54 | 26.29910 | -148.97057 | 39065 ft | 480 kts | 56° |
| 2026-04-25 00:55 | 26.33362 | -148.90733 | 39065 ft | 480 kts | 56° |
| 2026-04-25 00:55 | 26.36842 | -148.84354 | 39063 ft | 480 kts | 56° |
| 2026-04-25 00:56 | 26.40311 | -148.77983 | 39065 ft | 480 kts | 56° |
| 2026-04-25 00:56 | 26.43762 | -148.71631 | 39062 ft | 480 kts | 56° |
| 2026-04-25 00:57 | 26.47245 | -148.65213 | 39067 ft | 481 kts | 56° |
| 2026-04-25 00:57 | 26.50689 | -148.58863 | 39065 ft | 481 kts | 56° |
| 2026-04-25 00:58 | 26.54151 | -148.52467 | 39065 ft | 481 kts | 56° |
| 2026-04-25 00:58 | 26.57626 | -148.46039 | 39066 ft | 481 kts | 56° |
| 2026-04-25 00:59 | 26.61059 | -148.39684 | 39065 ft | 481 kts | 56° |
| 2026-04-25 00:59 | 26.64512 | -148.33278 | 39064 ft | 481 kts | 56° |
| 2026-04-25 01:00 | 26.67963 | -148.26866 | 39065 ft | 481 kts | 56° |
| 2026-04-25 01:00 | 26.71409 | -148.20451 | 39065 ft | 480 kts | 56° |
| 2026-04-25 01:01 | 26.74863 | -148.14022 | 39064 ft | 480 kts | 56° |
| 2026-04-25 01:01 | 26.78284 | -148.07638 | 39067 ft | 480 kts | 56° |
| 2026-04-25 01:02 | 26.81717 | -148.01217 | 39065 ft | 480 kts | 56° |
| 2026-04-25 01:02 | 26.85136 | -147.94819 | 39060 ft | 481 kts | 56° |
| 2026-04-25 01:03 | 26.88553 | -147.88419 | 39064 ft | 481 kts | 56° |
| 2026-04-25 01:03 | 26.91986 | -147.81980 | 39065 ft | 482 kts | 56° |
| 2026-04-25 01:04 | 26.95424 | -147.75522 | 39066 ft | 482 kts | 56° |
| 2026-04-25 01:04 | 26.98873 | -147.69028 | 39068 ft | 483 kts | 56° |
| 2026-04-25 01:05 | 27.02287 | -147.62589 | 39062 ft | 483 kts | 56° |
| 2026-04-25 01:05 | 27.05705 | -147.56134 | 39065 ft | 483 kts | 56° |
| 2026-04-25 01:06 | 27.09145 | -147.49629 | 39065 ft | 483 kts | 56° |
| 2026-04-25 01:06 | 27.12571 | -147.43142 | 39063 ft | 483 kts | 56° |
| 2026-04-25 01:07 | 27.15985 | -147.36669 | 39063 ft | 482 kts | 56° |
| 2026-04-25 01:07 | 27.19400 | -147.30182 | 39058 ft | 482 kts | 56° |
| 2026-04-25 01:08 | 27.22795 | -147.23726 | 39048 ft | 482 kts | 56° |
| 2026-04-25 01:08 | 27.26218 | -147.17207 | 39044 ft | 482 kts | 56° |
| 2026-04-25 01:09 | 27.29619 | -147.10727 | 39046 ft | 481 kts | 56° |
| 2026-04-25 01:09 | 27.32997 | -147.04272 | 39045 ft | 481 kts | 56° |
| 2026-04-25 01:10 | 27.36385 | -146.97790 | 39046 ft | 481 kts | 56° |
| 2026-04-25 01:10 | 27.39769 | -146.91310 | 39047 ft | 481 kts | 56° |
| 2026-04-25 01:11 | 27.43162 | -146.84796 | 39036 ft | 481 kts | 56° |
| 2026-04-25 01:11 | 27.46539 | -146.78306 | 39038 ft | 481 kts | 56° |
| 2026-04-25 01:12 | 27.49919 | -146.71798 | 39036 ft | 482 kts | 56° |
| 2026-04-25 01:12 | 27.53316 | -146.65253 | 39036 ft | 482 kts | 56° |
| 2026-04-25 01:13 | 27.56686 | -146.58744 | 39039 ft | 481 kts | 56° |
| 2026-04-25 01:13 | 27.60049 | -146.52246 | 39036 ft | 481 kts | 56° |
| 2026-04-25 01:14 | 27.63416 | -146.45726 | 39038 ft | 480 kts | 56° |
| 2026-04-25 01:14 | 27.66768 | -146.39224 | 39037 ft | 480 kts | 56° |
| 2026-04-25 01:15 | 27.70117 | -146.32721 | 39037 ft | 480 kts | 56° |
| 2026-04-25 01:15 | 27.73470 | -146.26196 | 39034 ft | 480 kts | 56° |
| 2026-04-25 01:16 | 27.76800 | -146.19711 | 39038 ft | 479 kts | 56° |
| 2026-04-25 01:16 | 27.80151 | -146.13170 | 39037 ft | 479 kts | 56° |
| 2026-04-25 01:17 | 27.83488 | -146.06646 | 39036 ft | 479 kts | 56° |
| 2026-04-25 01:17 | 27.86806 | -146.00156 | 39037 ft | 478 kts | 56° |
| 2026-04-25 01:18 | 27.90120 | -145.93660 | 39038 ft | 478 kts | 56° |
| 2026-04-25 01:18 | 27.93461 | -145.87102 | 39036 ft | 478 kts | 56° |
| 2026-04-25 01:19 | 27.96769 | -145.80602 | 39039 ft | 478 kts | 56° |
| 2026-04-25 01:19 | 28.00070 | -145.74099 | 39036 ft | 478 kts | 56° |
| 2026-04-25 01:20 | 28.03279 | -145.67769 | 39038 ft | 478 kts | 56° |
| 2026-04-25 01:20 | 28.06579 | -145.61251 | 39038 ft | 478 kts | 56° |
| 2026-04-25 01:21 | 28.09887 | -145.54707 | 39037 ft | 478 kts | 56° |
| 2026-04-25 01:21 | 28.13194 | -145.48154 | 39039 ft | 479 kts | 56° |
| 2026-04-25 01:22 | 28.16491 | -145.41615 | 39040 ft | 479 kts | 56° |
| 2026-04-25 01:22 | 28.19801 | -145.35037 | 39037 ft | 480 kts | 56° |
| 2026-04-25 01:23 | 28.23103 | -145.28462 | 39037 ft | 480 kts | 56° |
| 2026-04-25 01:23 | 28.26405 | -145.21879 | 39037 ft | 481 kts | 56° |
| 2026-04-25 01:24 | 28.29708 | -145.15283 | 39039 ft | 481 kts | 56° |
| 2026-04-25 01:24 | 28.33011 | -145.08676 | 39040 ft | 482 kts | 56° |
| 2026-04-25 01:25 | 28.36315 | -145.02059 | 39034 ft | 482 kts | 56° |
| 2026-04-25 01:25 | 28.39636 | -144.95391 | 39037 ft | 483 kts | 56° |
| 2026-04-25 01:26 | 28.42943 | -144.88744 | 39038 ft | 482 kts | 56° |
| 2026-04-25 01:26 | 28.46244 | -144.82105 | 39040 ft | 483 kts | 56° |
| 2026-04-25 01:27 | 28.49544 | -144.75454 | 39028 ft | 484 kts | 56° |
| 2026-04-25 01:27 | 28.52847 | -144.68783 | 39028 ft | 485 kts | 56° |
| 2026-04-25 01:28 | 28.57798 | -144.58760 | 39028 ft | 485 kts | 56° |
| 2026-04-25 01:28 | 28.61087 | -144.52089 | 39013 ft | 485 kts | 56° |
| 2026-04-25 01:29 | 28.64385 | -144.45390 | 39031 ft | 485 kts | 56° |
| 2026-04-25 01:29 | 28.67678 | -144.38693 | 39027 ft | 485 kts | 56° |
| 2026-04-25 01:30 | 28.70967 | -144.31992 | 39028 ft | 485 kts | 56° |
| 2026-04-25 01:30 | 28.74270 | -144.25252 | 39031 ft | 485 kts | 56° |
| 2026-04-25 01:31 | 28.77549 | -144.18552 | 39027 ft | 486 kts | 56° |
| 2026-04-25 01:31 | 28.80825 | -144.11842 | 39031 ft | 486 kts | 56° |
| 2026-04-25 01:32 | 28.84115 | -144.05095 | 39026 ft | 486 kts | 56° |
| 2026-04-25 01:32 | 28.86838 | -143.99505 | 39029 ft | 485 kts | 56° |
| 2026-04-25 01:33 | 28.90655 | -143.91647 | 39034 ft | 486 kts | 56° |
| 2026-04-25 01:33 | 28.93933 | -143.84894 | 39029 ft | 487 kts | 56° |
| 2026-04-25 01:34 | 28.96673 | -143.79240 | 39027 ft | 487 kts | 56° |
| 2026-04-25 01:34 | 28.99946 | -143.72473 | 39030 ft | 487 kts | 56° |
| 2026-04-25 01:35 | 29.03240 | -143.65652 | 39022 ft | 488 kts | 56° |
| 2026-04-25 01:35 | 29.06512 | -143.58867 | 39028 ft | 487 kts | 56° |
| 2026-04-25 01:36 | 29.09774 | -143.52087 | 39027 ft | 488 kts | 57° |
| 2026-04-25 01:36 | 29.13023 | -143.45322 | 39027 ft | 487 kts | 57° |
| 2026-04-25 01:37 | 29.16284 | -143.38524 | 39027 ft | 488 kts | 57° |
| 2026-04-25 01:37 | 29.19542 | -143.31723 | 39030 ft | 487 kts | 57° |
| 2026-04-25 01:38 | 29.22800 | -143.24904 | 39027 ft | 488 kts | 57° |
| 2026-04-25 01:38 | 29.26044 | -143.18106 | 39030 ft | 488 kts | 57° |
| 2026-04-25 01:39 | 29.29294 | -143.11283 | 39028 ft | 488 kts | 57° |
| 2026-04-25 01:39 | 29.32559 | -143.04418 | 39027 ft | 489 kts | 57° |
| 2026-04-25 01:40 | 29.35808 | -142.97577 | 39026 ft | 489 kts | 57° |
| 2026-04-25 01:40 | 29.39059 | -142.90716 | 39030 ft | 489 kts | 57° |
| 2026-04-25 01:41 | 29.42306 | -142.83857 | 39027 ft | 489 kts | 57° |
| 2026-04-25 01:41 | 29.45531 | -142.77030 | 39027 ft | 490 kts | 57° |
| 2026-04-25 01:42 | 29.48771 | -142.70162 | 39028 ft | 490 kts | 57° |
| 2026-04-25 01:42 | 29.52008 | -142.63279 | 39029 ft | 490 kts | 57° |
| 2026-04-25 01:43 | 29.55255 | -142.56371 | 39028 ft | 490 kts | 57° |
| 2026-04-25 01:43 | 29.58483 | -142.49488 | 39028 ft | 490 kts | 57° |
| 2026-04-25 01:44 | 29.61689 | -142.42639 | 39028 ft | 489 kts | 57° |
| 2026-04-25 01:44 | 29.64925 | -142.35715 | 39027 ft | 490 kts | 57° |
| 2026-04-25 01:45 | 29.68149 | -142.28810 | 39006 ft | 489 kts | 57° |
| 2026-04-25 01:45 | 29.71349 | -142.21941 | 39020 ft | 490 kts | 57° |
| 2026-04-25 01:46 | 29.74560 | -142.15034 | 39025 ft | 489 kts | 57° |
| 2026-04-25 01:46 | 29.77764 | -142.08131 | 39018 ft | 489 kts | 57° |
| 2026-04-25 01:47 | 29.80972 | -142.01211 | 39018 ft | 489 kts | 57° |
| 2026-04-25 01:47 | 29.84181 | -141.94277 | 39013 ft | 488 kts | 57° |
| 2026-04-25 01:48 | 29.87345 | -141.87418 | 39010 ft | 488 kts | 57° |
| 2026-04-25 01:48 | 29.90541 | -141.80484 | 39017 ft | 488 kts | 57° |
| 2026-04-25 01:49 | 29.93709 | -141.73598 | 39025 ft | 488 kts | 57° |
| 2026-04-25 01:49 | 29.96887 | -141.66681 | 39010 ft | 489 kts | 57° |
| 2026-04-25 01:50 | 30.00066 | -141.59755 | 39030 ft | 489 kts | 57° |
| 2026-04-25 01:50 | 30.03242 | -141.52814 | 39016 ft | 490 kts | 57° |
| 2026-04-25 01:51 | 30.06418 | -141.45854 | 39011 ft | 490 kts | 57° |
| 2026-04-25 01:51 | 30.09596 | -141.38885 | 39028 ft | 490 kts | 57° |
| 2026-04-25 01:52 | 30.12789 | -141.31875 | 39022 ft | 491 kts | 57° |
| 2026-04-25 01:52 | 30.15945 | -141.24925 | 39016 ft | 492 kts | 57° |
| 2026-04-25 01:53 | 30.19138 | -141.17885 | 39020 ft | 493 kts | 57° |
| 2026-04-25 01:53 | 30.22295 | -141.10911 | 39013 ft | 494 kts | 57° |
| 2026-04-25 01:54 | 30.25485 | -141.03855 | 39015 ft | 494 kts | 57° |
| 2026-04-25 01:54 | 30.28682 | -140.96768 | 39009 ft | 495 kts | 57° |
| 2026-04-25 01:55 | 30.31863 | -140.89705 | 39008 ft | 497 kts | 58° |
| 2026-04-25 01:55 | 30.35048 | -140.82614 | 39027 ft | 498 kts | 58° |
| 2026-04-25 01:56 | 30.38250 | -140.75474 | 39016 ft | 499 kts | 58° |
| 2026-04-25 01:56 | 30.41443 | -140.68342 | 39015 ft | 500 kts | 58° |
| 2026-04-25 01:57 | 30.46223 | -140.57633 | 39016 ft | 501 kts | 58° |
| 2026-04-25 01:58 | 30.49427 | -140.50432 | 39016 ft | 503 kts | 58° |
| 2026-04-25 01:58 | 30.52630 | -140.43219 | 39025 ft | 504 kts | 58° |
| 2026-04-25 01:59 | 30.55830 | -140.36002 | 39027 ft | 504 kts | 58° |
| 2026-04-25 01:59 | 30.59037 | -140.28754 | 39026 ft | 505 kts | 58° |
| 2026-04-25 02:00 | 30.62249 | -140.21481 | 39019 ft | 505 kts | 58° |
| 2026-04-25 02:00 | 30.65435 | -140.14246 | 39015 ft | 505 kts | 58° |
| 2026-04-25 02:01 | 30.68626 | -140.06993 | 39028 ft | 504 kts | 58° |
| 2026-04-25 02:01 | 30.71808 | -139.99749 | 39014 ft | 504 kts | 58° |
| 2026-04-25 02:02 | 30.74989 | -139.92491 | 39009 ft | 505 kts | 58° |
| 2026-04-25 02:02 | 30.78188 | -139.85179 | 39011 ft | 506 kts | 58° |
| 2026-04-25 02:03 | 30.81371 | -139.77883 | 39028 ft | 506 kts | 58° |
| 2026-04-25 02:03 | 30.84540 | -139.70604 | 39027 ft | 506 kts | 58° |
| 2026-04-25 02:04 | 30.87727 | -139.63271 | 39007 ft | 507 kts | 58° |
| 2026-04-25 02:04 | 30.90905 | -139.55955 | 39043 ft | 506 kts | 58° |
| 2026-04-25 02:05 | 30.94077 | -139.48633 | 39047 ft | 506 kts | 58° |
| 2026-04-25 02:05 | 30.97234 | -139.41331 | 39049 ft | 506 kts | 58° |
| 2026-04-25 02:06 | 31.00401 | -139.33988 | 39046 ft | 507 kts | 58° |
| 2026-04-25 02:06 | 31.03563 | -139.26643 | 39045 ft | 508 kts | 58° |
| 2026-04-25 02:07 | 31.06725 | -139.19287 | 39043 ft | 508 kts | 59° |
| 2026-04-25 02:07 | 31.09898 | -139.11887 | 39045 ft | 508 kts | 59° |
| 2026-04-25 02:08 | 31.13032 | -139.04565 | 39035 ft | 508 kts | 59° |
| 2026-04-25 02:08 | 31.16195 | -138.97160 | 39034 ft | 508 kts | 59° |
| 2026-04-25 02:09 | 31.19332 | -138.89801 | 39037 ft | 508 kts | 59° |
| 2026-04-25 02:09 | 31.22491 | -138.82373 | 39037 ft | 509 kts | 59° |
| 2026-04-25 02:10 | 31.25636 | -138.74964 | 39035 ft | 508 kts | 59° |
| 2026-04-25 02:10 | 31.28754 | -138.67609 | 39039 ft | 508 kts | 59° |
| 2026-04-25 02:11 | 31.31892 | -138.60189 | 39035 ft | 509 kts | 59° |
| 2026-04-25 02:11 | 31.35038 | -138.52732 | 39039 ft | 509 kts | 60° |
| 2026-04-25 02:12 | 31.38165 | -138.45306 | 39038 ft | 509 kts | 60° |
| 2026-04-25 02:12 | 31.41294 | -138.37868 | 39037 ft | 510 kts | 60° |
| 2026-04-25 02:13 | 31.44403 | -138.30452 | 39037 ft | 510 kts | 60° |
| 2026-04-25 02:13 | 31.47528 | -138.22987 | 39037 ft | 510 kts | 60° |
| 2026-04-25 02:14 | 31.50637 | -138.15543 | 39039 ft | 510 kts | 60° |
| 2026-04-25 02:14 | 31.53755 | -138.08065 | 39036 ft | 510 kts | 60° |
| 2026-04-25 02:15 | 31.56859 | -138.00598 | 39040 ft | 510 kts | 61° |
| 2026-04-25 02:15 | 31.59984 | -137.93069 | 39032 ft | 510 kts | 61° |
| 2026-04-25 02:16 | 31.63071 | -137.85621 | 39037 ft | 510 kts | 61° |
| 2026-04-25 02:16 | 31.66174 | -137.78116 | 39037 ft | 510 kts | 61° |
| 2026-04-25 02:17 | 31.69269 | -137.70617 | 39036 ft | 510 kts | 61° |
| 2026-04-25 02:17 | 31.72337 | -137.63165 | 39037 ft | 510 kts | 61° |
| 2026-04-25 02:18 | 31.75421 | -137.55658 | 39036 ft | 511 kts | 61° |
| 2026-04-25 02:18 | 31.78516 | -137.48110 | 39037 ft | 511 kts | 61° |
| 2026-04-25 02:19 | 31.81580 | -137.40621 | 39038 ft | 511 kts | 62° |
| 2026-04-25 02:19 | 31.84667 | -137.33056 | 39032 ft | 512 kts | 62° |
| 2026-04-25 02:20 | 31.87736 | -137.25527 | 39027 ft | 513 kts | 62° |
| 2026-04-25 02:20 | 31.90319 | -137.19175 | 39029 ft | 513 kts | 62° |
| 2026-04-25 02:21 | 31.93397 | -137.11592 | 39029 ft | 514 kts | 62° |
| 2026-04-25 02:21 | 31.96471 | -137.03999 | 39030 ft | 515 kts | 62° |
| 2026-04-25 02:22 | 31.99542 | -136.96401 | 39029 ft | 516 kts | 62° |
| 2026-04-25 02:22 | 32.02611 | -136.88794 | 39035 ft | 516 kts | 63° |
| 2026-04-25 02:23 | 32.05685 | -136.81153 | 39011 ft | 515 kts | 63° |
| 2026-04-25 02:23 | 32.08755 | -136.73503 | 39028 ft | 515 kts | 63° |
| 2026-04-25 02:24 | 32.11812 | -136.65869 | 39011 ft | 515 kts | 63° |
| 2026-04-25 02:24 | 32.14863 | -136.58235 | 39029 ft | 515 kts | 63° |
| 2026-04-25 02:25 | 32.17918 | -136.50577 | 39022 ft | 515 kts | 63° |
| 2026-04-25 02:25 | 32.20957 | -136.42945 | 39031 ft | 516 kts | 64° |
| 2026-04-25 02:26 | 32.23999 | -136.35287 | 39028 ft | 517 kts | 64° |
| 2026-04-25 02:26 | 32.27058 | -136.27565 | 39029 ft | 517 kts | 64° |
| 2026-04-25 02:27 | 32.30111 | -136.19844 | 39029 ft | 518 kts | 64° |
| 2026-04-25 02:27 | 32.33145 | -136.12155 | 39029 ft | 519 kts | 64° |
| 2026-04-25 02:28 | 32.36187 | -136.04424 | 39026 ft | 519 kts | 64° |
| 2026-04-25 02:28 | 32.39243 | -135.96646 | 39027 ft | 520 kts | 64° |
| 2026-04-25 02:29 | 32.42275 | -135.88909 | 39031 ft | 520 kts | 64° |
| 2026-04-25 02:29 | 32.45311 | -135.81145 | 39027 ft | 520 kts | 64° |
| 2026-04-25 02:30 | 32.48358 | -135.73339 | 39024 ft | 520 kts | 64° |
| 2026-04-25 02:30 | 32.51395 | -135.65542 | 39024 ft | 519 kts | 64° |
| 2026-04-25 02:31 | 32.54395 | -135.57808 | 39027 ft | 519 kts | 64° |
| 2026-04-25 02:31 | 32.57393 | -135.50070 | 39029 ft | 517 kts | 64° |
| 2026-04-25 02:32 | 32.60398 | -135.42298 | 39025 ft | 517 kts | 65° |
| 2026-04-25 02:32 | 32.63391 | -135.34540 | 39031 ft | 516 kts | 65° |
| 2026-04-25 02:33 | 32.66359 | -135.26830 | 39028 ft | 516 kts | 65° |
| 2026-04-25 02:33 | 32.69355 | -135.19033 | 39026 ft | 516 kts | 65° |
| 2026-04-25 02:34 | 32.72318 | -135.11300 | 39031 ft | 515 kts | 65° |
| 2026-04-25 02:34 | 32.75279 | -135.03553 | 39028 ft | 515 kts | 65° |
| 2026-04-25 02:35 | 32.78227 | -134.95824 | 39027 ft | 515 kts | 65° |
| 2026-04-25 02:35 | 32.81199 | -134.88015 | 39029 ft | 515 kts | 65° |
| 2026-04-25 02:36 | 32.84131 | -134.80293 | 39027 ft | 515 kts | 66° |
| 2026-04-25 02:36 | 32.87075 | -134.72518 | 39028 ft | 515 kts | 66° |
| 2026-04-25 02:37 | 32.90011 | -134.64750 | 39027 ft | 515 kts | 66° |
| 2026-04-25 02:37 | 32.92942 | -134.56976 | 39029 ft | 515 kts | 66° |
| 2026-04-25 02:38 | 32.95881 | -134.49162 | 39027 ft | 515 kts | 66° |
| 2026-04-25 02:38 | 32.98798 | -134.41396 | 39030 ft | 515 kts | 66° |
| 2026-04-25 02:39 | 33.01722 | -134.33587 | 39028 ft | 515 kts | 66° |
| 2026-04-25 02:39 | 33.04619 | -134.25832 | 39029 ft | 515 kts | 66° |
| 2026-04-25 02:40 | 33.07541 | -134.17992 | 39027 ft | 515 kts | 66° |
| 2026-04-25 02:40 | 33.10422 | -134.10242 | 39029 ft | 514 kts | 66° |
| 2026-04-25 02:41 | 33.13326 | -134.02412 | 39014 ft | 515 kts | 66° |
| 2026-04-25 02:41 | 33.16223 | -133.94594 | 39000 ft | 514 kts | 67° |
| 2026-04-25 02:42 | 33.19101 | -133.86794 | 39006 ft | 514 kts | 67° |
| 2026-04-25 02:42 | 33.21974 | -133.78994 | 39008 ft | 515 kts | 67° |
| 2026-04-25 02:43 | 33.24858 | -133.71146 | 39009 ft | 515 kts | 67° |
| 2026-04-25 02:43 | 33.27750 | -133.63263 | 39011 ft | 516 kts | 67° |
| 2026-04-25 02:44 | 33.30621 | -133.55418 | 39004 ft | 516 kts | 67° |
| 2026-04-25 02:44 | 33.33486 | -133.47570 | 39004 ft | 516 kts | 67° |
| 2026-04-25 02:45 | 33.36360 | -133.39688 | 39014 ft | 516 kts | 68° |
| 2026-04-25 02:45 | 33.39221 | -133.31816 | 39007 ft | 517 kts | 68° |
| 2026-04-25 02:46 | 33.42069 | -133.23957 | 39010 ft | 517 kts | 68° |
| 2026-04-25 02:46 | 33.44934 | -133.16032 | 38998 ft | 518 kts | 68° |
| 2026-04-25 02:47 | 33.47798 | -133.08094 | 39003 ft | 518 kts | 68° |
| 2026-04-25 02:47 | 33.50650 | -133.00172 | 39012 ft | 518 kts | 68° |
| 2026-04-25 02:48 | 33.53494 | -132.92251 | 39010 ft | 519 kts | 68° |
| 2026-04-25 02:48 | 33.56342 | -132.84296 | 39014 ft | 520 kts | 68° |
| 2026-04-25 02:49 | 33.59180 | -132.76356 | 39039 ft | 520 kts | 68° |
| 2026-04-25 02:49 | 33.62020 | -132.68384 | 39037 ft | 521 kts | 68° |
| 2026-04-25 02:50 | 33.64873 | -132.60367 | 39038 ft | 522 kts | 68° |
| 2026-04-25 02:50 | 33.67721 | -132.52333 | 39012 ft | 522 kts | 69° |
| 2026-04-25 02:51 | 33.70568 | -132.44293 | 39036 ft | 522 kts | 69° |
| 2026-04-25 02:51 | 33.73387 | -132.36294 | 39032 ft | 523 kts | 69° |
| 2026-04-25 02:52 | 33.76223 | -132.28239 | 39029 ft | 523 kts | 69° |
| 2026-04-25 02:52 | 33.79042 | -132.20203 | 39037 ft | 523 kts | 69° |
| 2026-04-25 02:53 | 33.81881 | -132.12107 | 39029 ft | 523 kts | 69° |
| 2026-04-25 02:53 | 33.84697 | -132.04063 | 39027 ft | 523 kts | 69° |
| 2026-04-25 02:54 | 33.87505 | -131.96005 | 39029 ft | 523 kts | 69° |
| 2026-04-25 02:54 | 33.90312 | -131.87929 | 39013 ft | 522 kts | 69° |
| 2026-04-25 02:55 | 33.93105 | -131.79861 | 39021 ft | 522 kts | 69° |
| 2026-04-25 02:55 | 33.95898 | -131.71777 | 39016 ft | 522 kts | 69° |
| 2026-04-25 02:56 | 33.98680 | -131.63713 | 39010 ft | 523 kts | 69° |
| 2026-04-25 02:56 | 34.01469 | -131.55623 | 39028 ft | 522 kts | 69° |
| 2026-04-25 02:57 | 34.04237 | -131.47554 | 39015 ft | 523 kts | 69° |
| 2026-04-25 02:57 | 34.07015 | -131.39432 | 39014 ft | 523 kts | 69° |
| 2026-04-25 02:58 | 34.09775 | -131.31362 | 39015 ft | 523 kts | 69° |
| 2026-04-25 02:58 | 34.12550 | -131.23227 | 39016 ft | 523 kts | 69° |
| 2026-04-25 02:59 | 34.15311 | -131.15085 | 39026 ft | 523 kts | 69° |
| 2026-04-25 02:59 | 34.18060 | -131.06968 | 39008 ft | 523 kts | 69° |
| 2026-04-25 03:00 | 34.20812 | -130.98824 | 39008 ft | 524 kts | 69° |
| 2026-04-25 03:00 | 34.23540 | -130.90728 | 39007 ft | 524 kts | 69° |
| 2026-04-25 03:01 | 34.26292 | -130.82538 | 39007 ft | 525 kts | 69° |
| 2026-04-25 03:01 | 34.29032 | -130.74364 | 39006 ft | 526 kts | 70° |
| 2026-04-25 03:02 | 34.31790 | -130.66122 | 39016 ft | 527 kts | 70° |
| 2026-04-25 03:02 | 34.34522 | -130.57923 | 39013 ft | 528 kts | 70° |
| 2026-04-25 03:03 | 34.37264 | -130.49680 | 38998 ft | 529 kts | 70° |
| 2026-04-25 03:03 | 34.40016 | -130.41389 | 39007 ft | 530 kts | 70° |
| 2026-04-25 03:04 | 34.42761 | -130.33093 | 39016 ft | 530 kts | 70° |
| 2026-04-25 03:04 | 34.45490 | -130.24823 | 39010 ft | 531 kts | 70° |
| 2026-04-25 03:05 | 34.49133 | -130.13747 | 39003 ft | 531 kts | 70° |
| 2026-04-25 03:05 | 34.52308 | -130.04063 | 39016 ft | 532 kts | 70° |
| 2026-04-25 03:06 | 34.54588 | -129.97089 | 39012 ft | 532 kts | 70° |
| 2026-04-25 03:06 | 34.57303 | -129.88763 | 39003 ft | 533 kts | 70° |
| 2026-04-25 03:07 | 34.60037 | -129.80353 | 39018 ft | 533 kts | 70° |
| 2026-04-25 03:07 | 34.62743 | -129.72014 | 39012 ft | 533 kts | 70° |
| 2026-04-25 03:08 | 34.65458 | -129.63617 | 39007 ft | 532 kts | 70° |
| 2026-04-25 03:08 | 34.68145 | -129.55286 | 38990 ft | 530 kts | 70° |
| 2026-04-25 03:09 | 34.70825 | -129.46957 | 38999 ft | 528 kts | 70° |
| 2026-04-25 03:09 | 34.73488 | -129.38651 | 38991 ft | 526 kts | 70° |
| 2026-04-25 03:10 | 34.76119 | -129.30425 | 38994 ft | 524 kts | 70° |
| 2026-04-25 03:10 | 34.78763 | -129.22138 | 38997 ft | 524 kts | 70° |
| 2026-04-25 03:11 | 34.81399 | -129.13849 | 38994 ft | 525 kts | 70° |
| 2026-04-25 03:11 | 34.84033 | -129.05545 | 38985 ft | 525 kts | 70° |
| 2026-04-25 03:12 | 34.86639 | -128.97306 | 38982 ft | 526 kts | 71° |
| 2026-04-25 03:12 | 34.89277 | -128.88945 | 38986 ft | 526 kts | 71° |
| 2026-04-25 03:13 | 34.91890 | -128.80638 | 38981 ft | 527 kts | 71° |
| 2026-04-25 03:13 | 34.94510 | -128.72287 | 38990 ft | 527 kts | 71° |
| 2026-04-25 03:14 | 34.97129 | -128.63914 | 38997 ft | 528 kts | 71° |
| 2026-04-25 03:14 | 34.99726 | -128.55587 | 39004 ft | 528 kts | 71° |
| 2026-04-25 03:15 | 35.02340 | -128.47182 | 39004 ft | 529 kts | 71° |
| 2026-04-25 03:15 | 35.04948 | -128.38776 | 39007 ft | 530 kts | 71° |
| 2026-04-25 03:16 | 35.07558 | -128.30340 | 39007 ft | 531 kts | 71° |
| 2026-04-25 03:16 | 35.10152 | -128.21927 | 39008 ft | 531 kts | 71° |
| 2026-04-25 03:17 | 35.12741 | -128.13504 | 39015 ft | 531 kts | 71° |
| 2026-04-25 03:17 | 35.15344 | -128.05010 | 39000 ft | 531 kts | 71° |
| 2026-04-25 03:18 | 35.17913 | -127.96600 | 38991 ft | 531 kts | 71° |
| 2026-04-25 03:18 | 35.20488 | -127.88159 | 39002 ft | 531 kts | 71° |
| 2026-04-25 03:19 | 35.23065 | -127.79678 | 39008 ft | 532 kts | 71° |
| 2026-04-25 03:19 | 35.25643 | -127.71178 | 38999 ft | 532 kts | 71° |
| 2026-04-25 03:20 | 35.28198 | -127.62718 | 38994 ft | 533 kts | 71° |
| 2026-04-25 03:20 | 35.30767 | -127.54188 | 39010 ft | 533 kts | 71° |
| 2026-04-25 03:21 | 35.33331 | -127.45655 | 38999 ft | 534 kts | 71° |
| 2026-04-25 03:21 | 35.35890 | -127.37112 | 39001 ft | 534 kts | 71° |
| 2026-04-25 03:22 | 35.38441 | -127.28558 | 39005 ft | 535 kts | 71° |
| 2026-04-25 03:22 | 35.40990 | -127.20003 | 39003 ft | 535 kts | 71° |
| 2026-04-25 03:23 | 35.43546 | -127.11394 | 38989 ft | 536 kts | 71° |
| 2026-04-25 03:23 | 35.46077 | -127.02839 | 38986 ft | 536 kts | 71° |
| 2026-04-25 03:24 | 35.48618 | -126.94229 | 38990 ft | 536 kts | 71° |
| 2026-04-25 03:24 | 35.51150 | -126.85618 | 38987 ft | 537 kts | 71° |
| 2026-04-25 03:25 | 35.53672 | -126.77014 | 38990 ft | 537 kts | 71° |
| 2026-04-25 03:25 | 35.56203 | -126.68355 | 38988 ft | 538 kts | 71° |
| 2026-04-25 03:26 | 35.58588 | -126.60174 | 38993 ft | 538 kts | 71° |
| 2026-04-25 03:26 | 35.61179 | -126.51256 | 38990 ft | 538 kts | 71° |
| 2026-04-25 03:27 | 35.63687 | -126.42597 | 38987 ft | 538 kts | 71° |
| 2026-04-25 03:27 | 35.66177 | -126.33978 | 38989 ft | 538 kts | 71° |
| 2026-04-25 03:28 | 35.68676 | -126.25290 | 38990 ft | 538 kts | 71° |
| 2026-04-25 03:28 | 35.71168 | -126.16605 | 38988 ft | 539 kts | 71° |
| 2026-04-25 03:29 | 35.73682 | -126.07985 | 38990 ft | 539 kts | 69° |
| 2026-04-25 03:29 | 35.76555 | -125.99470 | 38989 ft | 539 kts | 66° |
| 2026-04-25 03:30 | 35.79530 | -125.90981 | 38995 ft | 539 kts | 66° |
| 2026-04-25 03:30 | 35.82473 | -125.82495 | 38992 ft | 539 kts | 66° |
| 2026-04-25 03:31 | 35.86036 | -125.74386 | 38990 ft | 538 kts | 57° |
| 2026-04-25 03:31 | 35.90051 | -125.66592 | 39001 ft | 538 kts | 56° |
| 2026-04-25 03:32 | 35.94061 | -125.58800 | 38992 ft | 538 kts | 56° |
| 2026-04-25 03:32 | 35.98028 | -125.50959 | 38992 ft | 539 kts | 57° |
| 2026-04-25 03:33 | 36.01973 | -125.43080 | 38998 ft | 539 kts | 57° |
| 2026-04-25 03:33 | 36.05875 | -125.35266 | 38988 ft | 538 kts | 57° |
| 2026-04-25 03:34 | 36.09796 | -125.27404 | 38985 ft | 537 kts | 57° |
| 2026-04-25 03:34 | 36.13704 | -125.19556 | 38988 ft | 535 kts | 57° |
| 2026-04-25 03:35 | 36.17598 | -125.11720 | 38992 ft | 534 kts | 57° |
| 2026-04-25 03:35 | 36.21480 | -125.03888 | 38993 ft | 533 kts | 57° |
| 2026-04-25 03:36 | 36.25341 | -124.96075 | 38987 ft | 531 kts | 57° |
| 2026-04-25 03:36 | 36.29201 | -124.88253 | 38603 ft | 536 kts | 57° |
| 2026-04-25 03:37 | 36.31148 | -124.84302 | 37908 ft | 537 kts | 57° |
| 2026-04-25 03:37 | 36.33093 | -124.80350 | 37235 ft | 536 kts | 56° |
| 2026-04-25 03:37 | 36.35032 | -124.76404 | 36538 ft | 535 kts | 56° |
| 2026-04-25 03:37 | 36.36963 | -124.72469 | 35826 ft | 534 kts | 56° |
| 2026-04-25 03:38 | 36.38892 | -124.68532 | 35285 ft | 530 kts | 56° |
| 2026-04-25 03:38 | 36.40779 | -124.64675 | 34795 ft | 527 kts | 56° |
| 2026-04-25 03:38 | 36.42671 | -124.60803 | 34322 ft | 523 kts | 56° |
| 2026-04-25 03:38 | 36.44550 | -124.56955 | 33846 ft | 519 kts | 55° |
| 2026-04-25 03:39 | 36.46411 | -124.53143 | 33373 ft | 515 kts | 55° |
| 2026-04-25 03:39 | 36.48262 | -124.49344 | 32912 ft | 512 kts | 56° |
| 2026-04-25 03:39 | 36.50097 | -124.45573 | 32425 ft | 508 kts | 56° |
| 2026-04-25 03:39 | 36.51922 | -124.41821 | 31954 ft | 505 kts | 56° |
| 2026-04-25 03:40 | 36.53731 | -124.38099 | 31477 ft | 502 kts | 56° |
| 2026-04-25 03:40 | 36.55531 | -124.34390 | 30996 ft | 500 kts | 56° |
| 2026-04-25 03:40 | 36.57325 | -124.30692 | 30517 ft | 496 kts | 56° |
| 2026-04-25 03:40 | 36.59100 | -124.27026 | 30048 ft | 493 kts | 56° |
| 2026-04-25 03:41 | 36.60865 | -124.23380 | 29558 ft | 491 kts | 56° |
| 2026-04-25 03:41 | 36.62624 | -124.19739 | 29046 ft | 489 kts | 56° |
| 2026-04-25 03:41 | 36.64370 | -124.16124 | 28508 ft | 486 kts | 57° |
| 2026-04-25 03:41 | 36.66108 | -124.12520 | 27990 ft | 484 kts | 57° |
| 2026-04-25 03:42 | 36.67839 | -124.08925 | 27457 ft | 482 kts | 57° |
| 2026-04-25 03:42 | 36.69558 | -124.05350 | 26946 ft | 479 kts | 57° |
| 2026-04-25 03:42 | 36.71264 | -124.01797 | 26420 ft | 476 kts | 57° |
| 2026-04-25 03:42 | 36.72957 | -123.98270 | 25918 ft | 473 kts | 57° |
| 2026-04-25 03:43 | 36.74637 | -123.94765 | 25401 ft | 469 kts | 57° |
| 2026-04-25 03:43 | 36.76304 | -123.91286 | 24893 ft | 465 kts | 57° |
| 2026-04-25 03:43 | 36.77957 | -123.87829 | 24391 ft | 462 kts | 57° |
| 2026-04-25 03:43 | 36.79595 | -123.84403 | 23893 ft | 458 kts | 57° |
| 2026-04-25 03:44 | 36.81220 | -123.81002 | 23403 ft | 454 kts | 57° |
| 2026-04-25 03:44 | 36.82832 | -123.77623 | 22909 ft | 450 kts | 58° |
| 2026-04-25 03:44 | 36.84426 | -123.74280 | 22426 ft | 446 kts | 58° |
| 2026-04-25 03:44 | 36.86004 | -123.70966 | 21948 ft | 442 kts | 58° |
| 2026-04-25 03:45 | 36.87545 | -123.67725 | 21476 ft | 438 kts | 58° |
| 2026-04-25 03:45 | 36.89090 | -123.64474 | 21016 ft | 433 kts | 58° |
| 2026-04-25 03:45 | 36.90617 | -123.61256 | 20560 ft | 429 kts | 58° |
| 2026-04-25 03:45 | 36.92134 | -123.58059 | 20095 ft | 425 kts | 58° |
| 2026-04-25 03:46 | 36.93628 | -123.54905 | 19653 ft | 421 kts | 58° |
| 2026-04-25 03:46 | 36.95115 | -123.51765 | 19208 ft | 416 kts | 58° |
| 2026-04-25 03:46 | 36.96582 | -123.48663 | 18775 ft | 412 kts | 59° |
| 2026-04-25 03:46 | 36.98031 | -123.45599 | 18331 ft | 408 kts | 59° |
| 2026-04-25 03:47 | 36.99470 | -123.42552 | 17897 ft | 404 kts | 59° |
| 2026-04-25 03:47 | 37.00895 | -123.39530 | 17464 ft | 400 kts | 59° |
| 2026-04-25 03:47 | 37.02303 | -123.36542 | 17028 ft | 396 kts | 59° |
| 2026-04-25 03:47 | 37.03699 | -123.33575 | 16600 ft | 393 kts | 59° |
| 2026-04-25 03:48 | 37.05081 | -123.30636 | 16173 ft | 390 kts | 59° |
| 2026-04-25 03:48 | 37.06431 | -123.27764 | 15745 ft | 387 kts | 59° |
| 2026-04-25 03:48 | 37.07789 | -123.24871 | 15317 ft | 384 kts | 59° |
| 2026-04-25 03:48 | 37.09136 | -123.22001 | 14865 ft | 381 kts | 59° |
| 2026-04-25 03:49 | 37.10475 | -123.19143 | 14428 ft | 379 kts | 59° |
| 2026-04-25 03:49 | 37.11806 | -123.16300 | 13982 ft | 376 kts | 59° |
| 2026-04-25 03:49 | 37.13127 | -123.13477 | 13536 ft | 374 kts | 59° |
| 2026-04-25 03:49 | 37.14440 | -123.10668 | 13083 ft | 372 kts | 59° |
| 2026-04-25 03:50 | 37.15745 | -123.07874 | 12641 ft | 370 kts | 59° |
| 2026-04-25 03:50 | 37.17045 | -123.05087 | 12196 ft | 368 kts | 59° |
| 2026-04-25 03:50 | 37.18333 | -123.02325 | 11743 ft | 366 kts | 59° |
| 2026-04-25 03:50 | 37.19603 | -122.99598 | 11300 ft | 365 kts | 59° |
| 2026-04-25 03:51 | 37.20466 | -122.97744 | 10990 ft | 364 kts | 59° |
| 2026-04-25 03:51 | 37.22150 | -122.94123 | 10449 ft | 360 kts | 59° |
| 2026-04-25 03:51 | 37.23392 | -122.91452 | 10291 ft | 350 kts | 59° |
| 2026-04-25 03:51 | 37.24214 | -122.89682 | 10189 ft | 344 kts | 59° |
| 2026-04-25 03:52 | 37.25749 | -122.86330 | 10062 ft | 322 kts | 63° |
| 2026-04-25 03:52 | 37.26320 | -122.84611 | 10024 ft | 311 kts | 71° |
| 2026-04-25 03:52 | 37.26913 | -122.82101 | 10005 ft | 297 kts | 75° |
| 2026-04-25 03:52 | 37.27428 | -122.79652 | 10000 ft | 285 kts | 75° |
| 2026-04-25 03:53 | 37.27938 | -122.77256 | 9990 ft | 284 kts | 75° |
| 2026-04-25 03:53 | 37.28471 | -122.74845 | 9708 ft | 290 kts | 74° |
| 2026-04-25 03:53 | 37.29023 | -122.72427 | 9547 ft | 284 kts | 74° |
| 2026-04-25 03:53 | 37.29570 | -122.70068 | 9452 ft | 279 kts | 73° |
| 2026-04-25 03:54 | 37.30112 | -122.67734 | 9368 ft | 276 kts | 73° |
| 2026-04-25 03:54 | 37.30649 | -122.65424 | 9291 ft | 277 kts | 74° |
| 2026-04-25 03:54 | 37.31192 | -122.63087 | 9220 ft | 281 kts | 74° |
| 2026-04-25 03:54 | 37.31745 | -122.60705 | 9139 ft | 284 kts | 74° |
| 2026-04-25 03:55 | 37.32296 | -122.58329 | 9052 ft | 283 kts | 74° |
| 2026-04-25 03:55 | 37.32846 | -122.55957 | 8969 ft | 282 kts | 74° |
| 2026-04-25 03:55 | 37.33392 | -122.53597 | 8886 ft | 281 kts | 74° |
| 2026-04-25 03:55 | 37.33937 | -122.51238 | 8802 ft | 280 kts | 74° |
| 2026-04-25 03:56 | 37.34470 | -122.48928 | 8723 ft | 280 kts | 74° |
| 2026-04-25 03:56 | 37.35018 | -122.46553 | 8642 ft | 279 kts | 74° |
| 2026-04-25 03:56 | 37.35557 | -122.44217 | 8559 ft | 279 kts | 74° |
| 2026-04-25 03:56 | 37.36097 | -122.41872 | 8468 ft | 279 kts | 74° |
| 2026-04-25 03:57 | 37.36635 | -122.39535 | 8399 ft | 278 kts | 74° |
| 2026-04-25 03:57 | 37.37163 | -122.37234 | 8313 ft | 278 kts | 74° |
| 2026-04-25 03:57 | 37.37706 | -122.34870 | 8235 ft | 278 kts | 74° |
| 2026-04-25 03:57 | 37.38241 | -122.32540 | 8155 ft | 277 kts | 74° |
| 2026-04-25 03:58 | 37.38768 | -122.30242 | 8077 ft | 277 kts | 74° |
| 2026-04-25 03:58 | 37.39318 | -122.27948 | 7961 ft | 270 kts | 73° |
| 2026-04-25 03:58 | 37.39866 | -122.25715 | 7684 ft | 262 kts | 73° |
| 2026-04-25 03:58 | 37.40400 | -122.23551 | 7234 ft | 255 kts | 73° |
| 2026-04-25 03:59 | 37.40917 | -122.21456 | 6768 ft | 248 kts | 73° |
| 2026-04-25 03:59 | 37.41423 | -122.19410 | 6318 ft | 242 kts | 72° |
| 2026-04-25 03:59 | 37.41909 | -122.17433 | 5870 ft | 235 kts | 73° |
| 2026-04-25 03:59 | 37.42388 | -122.15483 | 5407 ft | 232 kts | 73° |
| 2026-04-25 04:00 | 37.43002 | -122.13600 | 4959 ft | 234 kts | 52° |
| 2026-04-25 04:00 | 37.44248 | -122.12288 | 4525 ft | 233 kts | 26° |
| 2026-04-25 04:00 | 37.45704 | -122.11409 | 4147 ft | 232 kts | 23° |
| 2026-04-25 04:00 | 37.47158 | -122.10591 | 4010 ft | 222 kts | 17° |
| 2026-04-25 04:01 | 37.48684 | -122.10459 | 4027 ft | 223 kts | 346° |
| 2026-04-25 04:01 | 37.50149 | -122.11030 | 4021 ft | 218 kts | 341° |
| 2026-04-25 04:01 | 37.51536 | -122.11614 | 3976 ft | 201 kts | 335° |
| 2026-04-25 04:01 | 37.52588 | -122.12769 | 3329 ft | 208 kts | 297° |
| 2026-04-25 04:02 | 37.52966 | -122.14399 | 3376 ft | 188 kts | 279° |
| 2026-04-25 04:02 | 37.53164 | -122.16009 | 3547 ft | 190 kts | 282° |
| 2026-04-25 04:02 | 37.53545 | -122.17608 | 3606 ft | 193 kts | 296° |
| 2026-04-25 04:02 | 37.54194 | -122.19061 | 3467 ft | 187 kts | 301° |
| 2026-04-25 04:03 | 37.54848 | -122.20485 | 3214 ft | 189 kts | 300° |
| 2026-04-25 04:03 | 37.55421 | -122.21943 | 2878 ft | 179 kts | 295° |
| 2026-04-25 04:03 | 37.55969 | -122.23349 | 2439 ft | 178 kts | 298° |
| 2026-04-25 04:03 | 37.56558 | -122.24693 | 2098 ft | 169 kts | 298° |
| 2026-04-25 04:04 | 37.57069 | -122.25965 | 1780 ft | 156 kts | 297° |
| 2026-04-25 04:04 | 37.57552 | -122.27087 | 1628 ft | 134 kts | 298° |
| 2026-04-25 04:04 | 37.57999 | -122.28145 | 1514 ft | 137 kts | 296° |
| 2026-04-25 04:04 | 37.58430 | -122.29204 | 1347 ft | 134 kts | 295° |
| 2026-04-25 04:05 | 37.58838 | -122.30216 | 1182 ft | 128 kts | 295° |
| 2026-04-25 04:05 | 37.59235 | -122.31209 | 977 ft | 126 kts | 296° |
| 2026-04-25 04:05 | 37.59644 | -122.32196 | 769 ft | 126 kts | 297° |
| 2026-04-25 04:05 | 37.60061 | -122.33169 | 548 ft | 127 kts | 295° |
| 2026-04-25 04:06 | 37.60463 | -122.34153 | 383 ft | 127 kts | 298° |
| 2026-04-25 04:06 | 37.60875 | -122.35135 | 219 ft | 126 kts | 297° |
| 2026-04-25 04:06 | 37.61283 | -122.36098 | 64 ft | 121 kts | 297° |
| 2026-04-25 04:06 | 37.61626 | -122.36925 | 27 ft | 93 kts | 298° |
| 2026-04-25 04:07 | 37.61872 | -122.37506 | 26 ft | 60 kts | 296° |
| 2026-04-25 04:07 | 37.62040 | -122.37926 | 26 ft | 42 kts | 297° |
| 2026-04-25 04:07 | 37.62162 | -122.38196 | 26 ft | 28 kts | 297° |
| 2026-04-25 04:07 | 37.62176 | -122.38333 | 26 ft | 13 kts | 229° |
| 2026-04-25 04:08 | 37.62135 | -122.38373 | 26 ft | 0 kts | 244° |
| 2026-04-25 04:08 | 37.62132 | -122.38384 | 26 ft | 6 kts | 254° |
| 2026-04-25 04:08 | 37.62131 | -122.38390 | 26 ft | 4 kts | 261° |
| 2026-04-25 04:08 | 37.62166 | -122.38503 | 26 ft | 12 kts | 297° |
| 2026-04-25 04:09 | 37.62191 | -122.38562 | 26 ft | 7 kts | 299° |
| 2026-04-25 04:09 | 37.62216 | -122.38619 | 26 ft | 9 kts | 298° |
| 2026-04-25 04:09 | 37.62247 | -122.38687 | 26 ft | 9 kts | 301° |
| 2026-04-25 04:09 | 37.62273 | -122.38756 | 26 ft | 9 kts | 285° |
| 2026-04-25 04:10 | 37.62276 | -122.38783 | 26 ft | 1 kts | 263° |
| 2026-04-25 04:10 | 37.62273 | -122.38791 | 26 ft | 1 kts | 249° |
| 2026-04-25 04:10 | 37.62263 | -122.38809 | 26 ft | 7 kts | 227° |
| 2026-04-25 04:10 | 37.62224 | -122.38816 | 26 ft | 6 kts | 169° |
| 2026-04-25 04:11 | 37.62152 | -122.38818 | 26 ft | 0 kts | 200° |
| 2026-04-25 04:11 | 37.62149 | -122.38820 | 26 ft | 3 kts | 202° |
| 2026-04-25 04:11 | 37.62131 | -122.38830 | 26 ft | 2 kts | 206° |
| 2026-04-25 04:12 | 37.62121 | -122.38837 | 26 ft | 2 kts | 208° |
| 2026-04-25 04:12 | 37.62111 | -122.38843 | 26 ft | 1 kts | 208° |
| 2026-04-25 04:12 | 37.62107 | -122.38846 | 26 ft | 0 kts | 208° |